Ana Sayfa
METAR-TAF:

METAR-TAF

Havaalanları :

Reşt Havaalanı

Reşt, İran

Enlem: 37-12N, Boylam: 049-38E, yükseklik: -7 m

Güncel hava durumu gözlemi

Rapor saat 23:00 UTC de 14 dakika önce yapıldı.
Sakin rüzgar
Sıcaklık 17°C
Nem 82%
Basınç 1019 hPa
Görüş mesafesi 10 km veya daha fazla
9000 ft yükseklikte parçalı bulutlu
17000 ft yükseklikte parçalı çok bulutlu

METAR: OIGG 212300Z 00000KT 9999 SCT090 BKN170 17/14 Q1019

Saat: 03:44 (23:14 UTC)


TAF: eksik

4.000'den fazla havaalanı için hava durumu gözlemleri ve tahminleri (METAR ve TAF raporları).

Kullanılabilir istasyonlar harita üzerinde sarı ve kırmızı noktalarla gösterilir.

İstasyonun adını görmek için fareyi noktanın üzerinde gezdirin.

Sonrasında hava gözlem ve tahminlerini görmek için tıklayın.

Haritayı değiştirmek için: yaklaştırmak için siyah artı işaretli yeşil düğmeye ve uzaklaştırmak için de eksi işaretli düğmeye hızla tıklayın; bitişik haritalar için yeşil okları kullanın.


METAR-TAF: